createdAt,value
2022-12-23T00:01:26.114Z,90.60
2022-12-23T00:03:58.607Z,90.60
2022-12-23T00:06:27.182Z,90.57
2022-12-23T00:08:58.388Z,90.54
2022-12-23T00:11:28.738Z,90.41
2022-12-23T00:14:21.081Z,90.39
2022-12-23T00:16:51.036Z,90.54
2022-12-23T00:19:19.225Z,90.41
2022-12-23T00:21:48.553Z,90.31
2022-12-23T00:24:16.895Z,90.31
2022-12-23T00:26:44.838Z,90.33
2022-12-23T00:29:12.619Z,90.26
2022-12-23T00:31:40.430Z,90.52
2022-12-23T00:34:12.039Z,90.51
2022-12-23T00:36:40.777Z,90.50
2022-12-23T00:39:31.272Z,90.50
2022-12-23T00:42:17.562Z,90.40
2022-12-23T00:44:45.426Z,90.58
2022-12-23T00:47:33.268Z,90.50
2022-12-23T00:50:01.051Z,90.48
2022-12-23T00:52:28.801Z,90.60
2022-12-23T00:54:56.466Z,90.74
2022-12-23T00:57:24.161Z,90.57
2022-12-23T00:59:51.871Z,90.58
2022-12-23T01:02:38.381Z,90.56
2022-12-23T01:05:26.080Z,90.74
2022-12-23T01:07:55.772Z,90.78
2022-12-23T01:10:23.505Z,90.81
2022-12-23T01:12:51.717Z,90.88
2022-12-23T01:15:19.423Z,90.81
2022-12-23T01:17:47.108Z,90.84
2022-12-23T01:20:14.919Z,90.76
2022-12-23T01:22:42.662Z,90.78
2022-12-23T01:25:11.391Z,90.80
2022-12-23T01:27:39.450Z,90.87
2022-12-23T01:30:08.370Z,90.66
2022-12-23T01:32:36.216Z,90.80
2022-12-23T01:35:04.347Z,90.78
2022-12-23T01:37:32.237Z,90.83
2022-12-23T01:39:59.984Z,90.84
2022-12-23T01:42:46.730Z,90.89
2022-12-23T01:45:32.751Z,90.77
2022-12-23T01:48:10.091Z,90.79
2022-12-23T01:50:49.105Z,90.79
2022-12-23T01:53:28.227Z,90.76
2022-12-23T01:56:03.627Z,90.73
2022-12-23T01:58:41.878Z,90.78
2022-12-23T02:01:29.742Z,90.68
2022-12-23T02:04:02.751Z,90.82
2022-12-23T02:07:05.156Z,90.79
2022-12-23T02:09:39.229Z,90.42
2022-12-23T02:12:43.716Z,90.47
2022-12-23T02:15:34.661Z,90.45
2022-12-23T02:18:26.800Z,90.54
2022-12-23T02:21:11.242Z,90.47
2022-12-23T02:24:28.671Z,90.48
2022-12-23T02:27:55.539Z,90.56
2022-12-23T02:30:45.902Z,90.47
2022-12-23T02:33:30.216Z,90.48
2022-12-23T02:36:25.282Z,90.37
2022-12-23T02:39:15.217Z,90.43
2022-12-23T02:42:05.852Z,90.66
2022-12-23T02:44:48.679Z,90.43
2022-12-23T02:47:22.885Z,90.57
2022-12-23T02:49:57.048Z,90.62
2022-12-23T02:52:34.327Z,90.34
2022-12-23T02:55:11.710Z,90.34
2022-12-23T02:57:46.512Z,90.43
2022-12-23T03:00:15.620Z,90.30
2022-12-23T03:02:45.232Z,90.10
2022-12-23T03:05:34.643Z,90.09
2022-12-23T03:08:07.505Z,90.09
2022-12-23T03:11:06.282Z,90.06
2022-12-23T03:13:59.675Z,89.90
2022-12-23T03:16:46.723Z,90.06
2022-12-23T03:19:41.973Z,90.16
2022-12-23T03:22:32.407Z,90.05
2022-12-23T03:25:19.132Z,90.21
2022-12-23T03:28:00.215Z,90.36
2022-12-23T03:30:32.719Z,90.33
2022-12-23T03:33:24.055Z,90.46
2022-12-23T03:36:00.462Z,90.33
2022-12-23T03:38:33.772Z,90.33
2022-12-23T03:41:11.337Z,90.44
2022-12-23T03:43:51.291Z,90.39
2022-12-23T03:46:32.637Z,90.32
2022-12-23T03:49:10.276Z,90.41
2022-12-23T03:51:52.535Z,90.39
2022-12-23T03:54:30.043Z,90.47
2022-12-23T03:57:03.053Z,90.49
2022-12-23T03:59:35.782Z,90.54
2022-12-23T04:02:09.493Z,90.32
2022-12-23T04:04:58.453Z,90.28
2022-12-23T04:07:37.023Z,90.29
2022-12-23T04:10:05.952Z,90.26
2022-12-23T04:12:33.814Z,90.26
2022-12-23T04:15:02.034Z,90.35
2022-12-23T04:17:32.751Z,90.34
2022-12-23T04:20:00.579Z,90.31
2022-12-23T04:22:28.467Z,90.32
2022-12-23T04:24:56.191Z,90.43
2022-12-23T04:27:23.876Z,90.27
2022-12-23T04:29:51.582Z,90.22
2022-12-23T04:32:19.258Z,90.18
2022-12-23T04:34:46.987Z,90.18
2022-12-23T04:37:14.709Z,90.19
2022-12-23T04:39:42.413Z,90.29
2022-12-23T04:42:10.638Z,90.22
2022-12-23T04:44:38.415Z,90.28
2022-12-23T04:47:06.241Z,90.17
2022-12-23T04:49:34.066Z,90.21
2022-12-23T04:52:02.503Z,90.27
2022-12-23T04:54:30.476Z,90.37
2022-12-23T04:56:58.337Z,90.40
2022-12-23T04:59:26.318Z,90.40
2022-12-23T05:01:54.268Z,90.44
2022-12-23T05:04:22.182Z,90.44
2022-12-23T05:06:50.101Z,90.52
2022-12-23T05:09:18.061Z,90.71
2022-12-23T05:11:45.874Z,90.31
2022-12-23T05:14:13.782Z,90.22
2022-12-23T05:16:41.675Z,90.09
2022-12-23T05:19:11.127Z,90.37
2022-12-23T05:21:38.856Z,90.43
2022-12-23T05:24:07.005Z,90.29
2022-12-23T05:26:34.714Z,90.15
2022-12-23T05:29:02.495Z,90.09
2022-12-23T05:31:30.378Z,90.17
2022-12-23T05:34:04.094Z,90.30
2022-12-23T05:36:33.890Z,90.15
2022-12-23T05:39:01.763Z,90.34
2022-12-23T05:41:29.568Z,90.37
2022-12-23T05:43:57.359Z,90.33
2022-12-23T05:46:27.018Z,90.11
2022-12-23T05:48:55.246Z,89.82
2022-12-23T05:51:22.976Z,89.83
2022-12-23T05:53:50.785Z,89.92
2022-12-23T05:56:18.636Z,89.87
2022-12-23T05:58:46.385Z,89.83
2022-12-23T06:01:15.716Z,89.83
2022-12-23T06:03:43.614Z,89.73
2022-12-23T06:06:12.501Z,89.64
2022-12-23T06:08:40.209Z,89.69
2022-12-23T06:11:08.081Z,89.60
2022-12-23T06:13:35.787Z,89.59
2022-12-23T06:16:03.896Z,89.60
2022-12-23T06:18:31.647Z,89.99
2022-12-23T06:20:59.361Z,89.85
2022-12-23T06:23:27.051Z,89.63
2022-12-23T06:26:03.446Z,89.82
2022-12-23T06:28:31.227Z,89.95
2022-12-23T06:30:59.236Z,90.06
2022-12-23T06:33:27.090Z,90.11
2022-12-23T06:35:54.847Z,89.97
2022-12-23T06:38:22.702Z,90.07
2022-12-23T06:40:50.529Z,89.93
2022-12-23T06:43:18.486Z,90.07
2022-12-23T06:45:48.634Z,90.48
2022-12-23T06:48:17.559Z,90.52
2022-12-23T06:50:45.721Z,90.53
2022-12-23T06:53:13.432Z,90.67
2022-12-23T06:55:41.209Z,90.53
2022-12-23T06:58:09.170Z,90.43
2022-12-23T07:00:36.953Z,90.53
2022-12-23T07:03:05.021Z,90.78
2022-12-23T07:05:37.608Z,90.87
2022-12-23T07:08:06.137Z,90.96
2022-12-23T07:10:34.763Z,90.88
2022-12-23T07:13:02.509Z,91.11
2022-12-23T07:15:30.295Z,91.09
2022-12-23T07:17:58.022Z,91.30
2022-12-23T07:20:25.759Z,91.20
2022-12-23T07:22:57.393Z,91.15
2022-12-23T07:25:25.519Z,91.20
2022-12-23T07:27:56.554Z,91.28
2022-12-23T07:30:24.623Z,91.39
2022-12-23T07:32:53.056Z,91.24
2022-12-23T07:35:20.793Z,91.42
2022-12-23T07:37:54.018Z,91.43
2022-12-23T07:40:23.707Z,91.36
2022-12-23T07:42:56.780Z,91.47
2022-12-23T07:45:26.435Z,91.50
2022-12-23T07:47:57.310Z,91.49
2022-12-23T07:50:26.667Z,91.65
2022-12-23T07:52:54.926Z,91.66
2022-12-23T07:55:22.870Z,91.71
2022-12-23T07:57:52.767Z,91.70
2022-12-23T08:00:21.288Z,91.66
2022-12-23T08:02:49.279Z,91.69
2022-12-23T08:05:17.347Z,91.69
2022-12-23T08:07:45.247Z,91.72
2022-12-23T08:10:13.091Z,91.83
2022-12-23T08:12:40.904Z,91.68
2022-12-23T08:15:09.311Z,91.77
2022-12-23T08:17:37.052Z,91.83
2022-12-23T08:20:05.447Z,91.84
2022-12-23T08:22:33.144Z,91.98
2022-12-23T08:25:00.918Z,91.95
2022-12-23T08:27:28.759Z,92.12
2022-12-23T08:29:56.477Z,92.06
2022-12-23T08:32:27.640Z,92.10
2022-12-23T08:34:57.993Z,92.02
2022-12-23T08:37:25.848Z,92.01
2022-12-23T08:39:53.636Z,91.99
2022-12-23T08:42:21.364Z,92.05
2022-12-23T08:44:49.077Z,92.13
2022-12-23T08:47:16.894Z,92.16
2022-12-23T08:49:44.606Z,92.18
2022-12-23T08:52:12.648Z,92.18
2022-12-23T08:54:40.488Z,92.25
2022-12-23T08:57:08.182Z,92.30
2022-12-23T08:59:35.894Z,92.31
2022-12-23T09:02:04.633Z,92.39
2022-12-23T09:04:32.515Z,92.30
2022-12-23T09:07:00.264Z,92.44
2022-12-23T09:09:28.093Z,92.30
2022-12-23T09:11:55.941Z,92.29
2022-12-23T09:14:23.709Z,92.18
2022-12-23T09:16:52.473Z,92.29
2022-12-23T09:19:20.461Z,92.32
2022-12-23T09:21:48.238Z,92.34
2022-12-23T09:24:15.973Z,92.47
2022-12-23T09:26:43.766Z,92.49
2022-12-23T09:29:11.498Z,92.53
2022-12-23T09:31:39.333Z,92.60
2022-12-23T09:34:07.138Z,92.55
2022-12-23T09:36:34.926Z,92.62
2022-12-23T09:39:03.597Z,92.63
2022-12-23T09:42:18.505Z,92.64
2022-12-23T09:45:24.516Z,92.60
2022-12-23T09:47:56.617Z,92.66
2022-12-23T09:50:33.591Z,92.61
2022-12-23T09:53:08.075Z,92.60
2022-12-23T09:55:54.984Z,92.53
2022-12-23T09:58:52.645Z,92.51
2022-12-23T10:01:44.852Z,92.55
2022-12-23T10:04:37.957Z,92.54
2022-12-23T10:07:05.706Z,92.53
2022-12-23T10:09:39.799Z,92.49
2022-12-23T10:12:43.904Z,92.48
2022-12-23T10:15:39.036Z,92.50
2022-12-23T10:18:41.100Z,92.52
2022-12-23T10:21:24.674Z,92.51
2022-12-23T10:23:55.318Z,92.51
2022-12-23T10:26:31.296Z,92.50
2022-12-23T10:29:18.743Z,92.60
2022-12-23T10:32:17.602Z,92.62
2022-12-23T10:35:10.259Z,92.38
2022-12-23T10:37:51.184Z,92.54
2022-12-23T10:40:33.044Z,92.68
2022-12-23T10:43:24.772Z,92.39
2022-12-23T10:46:31.144Z,92.82
2022-12-23T10:49:32.952Z,92.46
2022-12-23T10:52:11.886Z,92.58
2022-12-23T10:54:43.964Z,92.71
2022-12-23T10:57:13.272Z,92.30
2022-12-23T10:59:41.394Z,91.96
2022-12-23T11:02:11.989Z,91.95
2022-12-23T11:04:47.648Z,91.85
2022-12-23T11:10:28.623Z,91.57
2022-12-23T11:12:56.383Z,91.45
2022-12-23T11:15:38.734Z,91.67
2022-12-23T11:18:12.265Z,91.68
2022-12-23T11:20:48.479Z,91.64
2022-12-23T11:23:30.441Z,91.62
2022-12-23T11:26:12.809Z,91.62
2022-12-23T11:28:53.326Z,91.41
2022-12-23T11:31:35.596Z,91.47
2022-12-23T11:34:14.221Z,91.52
2022-12-23T11:36:42.523Z,91.52
2022-12-23T11:39:10.150Z,91.43
2022-12-23T11:41:44.338Z,91.43
2022-12-23T11:44:28.135Z,91.36
2022-12-23T11:46:56.393Z,91.64
2022-12-23T11:49:27.469Z,91.55
2022-12-23T11:52:13.515Z,91.31
2022-12-23T11:54:52.837Z,91.29
2022-12-23T11:57:44.027Z,91.25
2022-12-23T12:00:41.505Z,90.97
2022-12-23T12:03:20.741Z,90.78
2022-12-23T12:06:00.555Z,90.85
2022-12-23T12:08:35.530Z,90.82
2022-12-23T12:11:18.461Z,90.76
2022-12-23T12:13:51.649Z,90.43
2022-12-23T12:16:47.574Z,90.43
2022-12-23T12:19:31.720Z,90.35
2022-12-23T12:22:11.374Z,90.51
2022-12-23T12:24:47.545Z,90.52
2022-12-23T12:27:20.775Z,90.49
2022-12-23T12:29:58.452Z,90.28
2022-12-23T12:32:33.091Z,90.43
2022-12-23T12:35:07.153Z,90.49
2022-12-23T12:37:59.433Z,90.42
2022-12-23T12:40:35.148Z,90.22
2022-12-23T12:43:20.992Z,90.07
2022-12-23T12:46:03.987Z,90.14
2022-12-23T12:48:55.697Z,90.16
2022-12-23T12:52:11.818Z,90.15
2022-12-23T12:54:56.322Z,90.30
2022-12-23T12:57:25.182Z,90.35
2022-12-23T13:00:03.618Z,90.50
2022-12-23T13:03:26.223Z,90.57
2022-12-23T13:06:13.875Z,90.71
2022-12-23T13:09:20.860Z,90.74
2022-12-23T13:12:14.655Z,90.77
2022-12-23T13:15:39.832Z,90.92
2022-12-23T13:18:31.050Z,91.01
2022-12-23T13:21:27.241Z,91.14
2022-12-23T13:24:05.992Z,90.76
2022-12-23T13:26:46.387Z,90.64
2022-12-23T13:29:53.101Z,90.47
2022-12-23T13:32:38.863Z,90.28
2022-12-23T13:35:18.904Z,90.40
2022-12-23T13:37:57.103Z,90.48
2022-12-23T13:40:47.367Z,90.39
2022-12-23T13:43:20.839Z,90.29
2022-12-23T13:45:52.740Z,90.12
2022-12-23T13:48:36.287Z,89.97
2022-12-23T13:51:15.429Z,90.00
2022-12-23T13:54:03.958Z,89.64
2022-12-23T13:57:16.499Z,89.71
2022-12-23T14:00:05.981Z,89.78
2022-12-23T14:02:43.643Z,89.98
2022-12-23T14:05:45.187Z,90.01
2022-12-23T14:08:19.022Z,89.94
2022-12-23T14:11:12.448Z,89.75
2022-12-23T14:13:52.903Z,89.77
2022-12-23T14:17:00.419Z,89.87
2022-12-23T14:19:50.471Z,89.88
2022-12-23T14:22:55.617Z,90.04
2022-12-23T14:25:33.512Z,90.27
2022-12-23T14:28:29.012Z,90.48
2022-12-23T14:30:56.971Z,90.73
2022-12-23T14:33:31.351Z,90.89
2022-12-23T14:36:25.129Z,91.10
2022-12-23T14:39:33.956Z,91.19
2022-12-23T14:42:06.738Z,91.22
2022-12-23T14:44:35.957Z,91.32
2022-12-23T14:47:36.076Z,91.42
2022-12-23T14:50:33.963Z,91.39
2022-12-23T14:53:24.870Z,91.35
2022-12-23T14:56:21.946Z,91.46
2022-12-23T14:59:09.928Z,91.44
2022-12-23T15:01:51.384Z,91.46
2022-12-23T15:04:44.445Z,91.35
2022-12-23T15:07:44.079Z,90.89
2022-12-23T15:10:24.003Z,90.46
2022-12-23T15:12:59.495Z,90.21
2022-12-23T15:15:30.088Z,89.99
2022-12-23T15:18:13.163Z,89.76
2022-12-23T15:20:40.975Z,89.45
2022-12-23T15:23:15.317Z,89.10
2022-12-23T15:25:51.265Z,88.82
2022-12-23T15:28:23.659Z,88.85
2022-12-23T15:30:55.500Z,89.19
2022-12-23T15:34:01.627Z,89.39
2022-12-23T15:36:32.101Z,89.44
2022-12-23T15:39:01.631Z,89.52
2022-12-23T15:41:29.435Z,89.79
2022-12-23T15:44:01.599Z,89.98
2022-12-23T15:46:31.921Z,90.00
2022-12-23T15:48:59.785Z,89.93
2022-12-23T15:52:07.193Z,89.88
2022-12-23T15:54:39.125Z,89.86
2022-12-23T15:57:06.923Z,89.75
2022-12-23T15:59:38.837Z,89.74
2022-12-23T16:05:31.805Z,89.51
2022-12-23T16:08:28.916Z,89.47
2022-12-23T16:11:00.758Z,89.50
2022-12-23T16:13:28.510Z,89.55
2022-12-23T16:16:37.211Z,89.66
2022-12-23T16:19:06.397Z,89.64
2022-12-23T16:21:36.850Z,89.71
2022-12-23T16:24:09.599Z,89.68
2022-12-23T16:26:43.393Z,89.60
2022-12-23T16:29:12.105Z,89.30
2022-12-23T16:31:45.697Z,89.37
2022-12-23T16:34:18.184Z,89.32
2022-12-23T16:36:46.028Z,89.39
2022-12-23T16:39:22.324Z,88.95
2022-12-23T16:41:50.811Z,88.79
2022-12-23T16:44:18.653Z,88.67
2022-12-23T16:46:50.959Z,88.45
2022-12-23T16:49:27.962Z,88.36
2022-12-23T16:51:59.432Z,88.41
2022-12-23T16:54:27.207Z,88.25
2022-12-23T16:56:54.952Z,88.38
2022-12-23T16:59:24.819Z,88.60
2022-12-23T17:01:55.519Z,88.76
2022-12-23T17:04:27.282Z,89.13
2022-12-23T17:06:54.992Z,89.30
2022-12-23T17:09:22.893Z,89.45
2022-12-23T17:11:54.166Z,89.46
2022-12-23T17:14:25.369Z,89.47
2022-12-23T17:16:53.258Z,89.34
2022-12-23T17:19:27.767Z,89.18
2022-12-23T17:22:02.537Z,89.03
2022-12-23T17:24:30.359Z,88.89
2022-12-23T17:26:58.256Z,88.84
2022-12-23T17:29:26.095Z,88.58
2022-12-23T17:31:54.348Z,88.27
2022-12-23T17:34:24.655Z,88.27
2022-12-23T17:36:52.833Z,88.26
2022-12-23T17:39:22.153Z,87.78
2022-12-23T17:41:51.208Z,87.44
2022-12-23T17:44:19.583Z,87.59
2022-12-23T17:46:47.985Z,87.85
2022-12-23T17:49:15.695Z,87.85
2022-12-23T17:51:43.709Z,87.83
2022-12-23T17:54:31.784Z,87.77
2022-12-23T17:56:59.519Z,87.88
2022-12-23T17:59:27.375Z,87.93
2022-12-23T18:01:55.200Z,88.07
2022-12-23T18:04:23.143Z,88.21
2022-12-23T18:06:50.834Z,88.46
2022-12-23T18:09:20.838Z,88.14
2022-12-23T18:11:48.617Z,88.18
2022-12-23T18:14:26.718Z,88.33
2022-12-23T18:16:54.708Z,88.41
2022-12-23T18:19:22.572Z,88.49
2022-12-23T18:21:52.088Z,88.64
2022-12-23T18:24:19.938Z,88.80
2022-12-23T18:26:47.814Z,88.90
2022-12-23T18:29:15.535Z,89.11
2022-12-23T18:31:51.604Z,89.07
2022-12-23T18:34:21.211Z,89.20
2022-12-23T18:36:51.535Z,88.97
2022-12-23T18:39:20.069Z,88.94
2022-12-23T18:41:47.934Z,88.95
2022-12-23T18:44:21.013Z,89.05
2022-12-23T18:46:49.578Z,89.04
2022-12-23T18:49:17.425Z,88.99
2022-12-23T18:51:46.148Z,89.10
2022-12-23T18:54:16.054Z,89.08
2022-12-23T18:56:44.976Z,88.97
2022-12-23T18:59:21.421Z,88.82
2022-12-23T19:01:56.483Z,88.71
2022-12-23T19:04:25.785Z,88.84
2022-12-23T19:06:55.719Z,88.79
2022-12-23T19:09:25.494Z,88.65
2022-12-23T19:11:54.341Z,88.79
2022-12-23T19:14:22.824Z,88.75
2022-12-23T19:16:52.375Z,88.45
2022-12-23T19:19:21.926Z,88.58
2022-12-23T19:21:49.778Z,88.58
2022-12-23T19:24:17.991Z,88.50
2022-12-23T19:26:45.759Z,88.66
2022-12-23T19:29:13.483Z,88.84
2022-12-23T19:31:41.560Z,88.94
2022-12-23T19:34:14.612Z,88.95
2022-12-23T19:36:44.387Z,89.12
2022-12-23T19:39:16.343Z,89.19
2022-12-23T19:41:45.696Z,89.27
2022-12-23T19:44:14.565Z,89.38
2022-12-23T19:46:42.500Z,89.59
2022-12-23T19:49:15.938Z,89.61
2022-12-23T19:51:45.462Z,89.83
2022-12-23T19:54:13.176Z,89.96
2022-12-23T19:56:41.443Z,89.91
2022-12-23T19:59:09.249Z,89.96
2022-12-23T20:01:37.011Z,89.82
2022-12-23T20:04:05.021Z,89.91
2022-12-23T20:06:38.257Z,90.03
2022-12-23T20:09:09.529Z,90.06
2022-12-23T20:11:42.620Z,90.10
2022-12-23T20:14:12.426Z,90.18
2022-12-23T20:16:40.963Z,90.32
2022-12-23T20:19:09.219Z,90.40
2022-12-23T20:21:37.707Z,90.18
2022-12-23T20:24:06.959Z,90.40
2022-12-23T20:26:34.852Z,90.55
2022-12-23T20:29:02.838Z,90.66
2022-12-23T20:31:35.424Z,90.79
2022-12-23T20:34:08.867Z,90.78
2022-12-23T20:36:36.842Z,90.75
2022-12-23T20:39:05.848Z,90.66
2022-12-23T20:41:34.125Z,90.53
2022-12-23T20:44:33.203Z,90.47
2022-12-23T20:46:50.146Z,90.48
2022-12-23T20:49:17.935Z,90.55
2022-12-23T20:51:45.612Z,90.58
2022-12-23T20:54:13.411Z,90.61
2022-12-23T20:56:41.122Z,90.78
2022-12-23T20:59:08.833Z,90.76
2022-12-23T21:01:40.286Z,90.85
2022-12-23T21:04:11.840Z,90.60
2022-12-23T21:06:40.333Z,90.65
2022-12-23T21:09:11.726Z,90.43
2022-12-23T21:11:43.033Z,90.10
2022-12-23T21:14:12.597Z,90.10
2022-12-23T21:16:41.831Z,90.25
2022-12-23T21:19:19.879Z,90.45
2022-12-23T21:21:49.201Z,90.55
2022-12-23T21:24:18.526Z,90.68
2022-12-23T21:26:55.477Z,90.60
2022-12-23T21:29:25.031Z,90.61
2022-12-23T21:31:52.933Z,90.81
2022-12-23T21:34:20.842Z,90.80
2022-12-23T21:36:48.682Z,90.91
2022-12-23T21:39:16.774Z,90.87
2022-12-23T21:41:45.744Z,90.85
2022-12-23T21:44:14.730Z,90.91
2022-12-23T21:46:42.790Z,90.99
2022-12-23T21:49:10.885Z,91.05
2022-12-23T21:51:40.852Z,91.05
2022-12-23T21:54:11.608Z,91.13
2022-12-23T21:56:41.104Z,91.27
2022-12-23T21:59:14.399Z,91.37
2022-12-23T22:01:43.455Z,91.53
2022-12-23T22:04:11.742Z,91.40
2022-12-23T22:06:45.855Z,91.46
2022-12-23T22:09:17.695Z,91.41
2022-12-23T22:11:47.030Z,91.49
2022-12-23T22:14:18.876Z,91.60
2022-12-23T22:16:46.684Z,91.64
2022-12-23T22:19:15.172Z,91.84
2022-12-23T22:21:42.992Z,91.95
2022-12-23T22:24:11.579Z,91.84
2022-12-23T22:26:40.762Z,91.80
2022-12-23T22:29:09.925Z,91.85
2022-12-23T22:31:47.467Z,91.94
2022-12-23T22:34:22.352Z,92.01
2022-12-23T22:36:50.402Z,92.00
2022-12-23T22:39:21.885Z,92.05
2022-12-23T22:41:51.330Z,92.07
2022-12-23T22:44:20.236Z,92.19
2022-12-23T22:46:48.458Z,92.26
2022-12-23T22:49:16.920Z,92.32
2022-12-23T22:51:45.100Z,92.34
2022-12-23T22:54:12.880Z,92.31
2022-12-23T22:56:40.689Z,92.37
2022-12-23T22:59:20.933Z,92.48
2022-12-23T23:01:50.866Z,92.46
2022-12-23T23:04:19.185Z,92.47
2022-12-23T23:06:46.984Z,92.58
2022-12-23T23:09:19.129Z,92.61
2022-12-23T23:11:47.835Z,92.60
2022-12-23T23:14:16.773Z,92.54
2022-12-23T23:16:44.680Z,92.48
2022-12-23T23:19:13.577Z,92.45
2022-12-23T23:21:41.265Z,92.47
2022-12-23T23:24:09.055Z,92.50
2022-12-23T23:26:36.938Z,92.52
2022-12-23T23:29:04.928Z,92.58
2022-12-23T23:31:42.058Z,92.74
2022-12-23T23:34:12.634Z,92.66
2022-12-23T23:36:41.548Z,92.65
2022-12-23T23:39:12.699Z,92.70
2022-12-23T23:41:41.324Z,92.74
2022-12-23T23:44:09.925Z,92.76
2022-12-23T23:46:39.019Z,92.88
2022-12-23T23:49:06.775Z,92.79
2022-12-23T23:51:34.946Z,92.71
2022-12-23T23:54:02.756Z,92.87
2022-12-23T23:56:37.522Z,92.90
2022-12-23T23:59:08.717Z,92.93
